createdAt,value
2018-10-11T00:10:12.450Z,8.99
2018-10-11T00:10:12.543Z,8.58
2018-10-11T00:10:12.559Z,8.58
2018-10-11T00:10:12.617Z,8.58
2018-10-11T00:16:07.450Z,8.12
2018-10-11T00:22:02.478Z,9.23
2018-10-11T00:27:57.439Z,9.37
2018-10-11T00:33:52.470Z,9.08
2018-10-11T00:39:47.477Z,9.75
2018-10-11T00:45:42.473Z,8.13
2018-10-11T00:51:37.452Z,8.52
2018-10-11T00:57:32.480Z,8.82
2018-10-11T01:21:12.501Z,9.17
2018-10-11T01:21:12.647Z,9.18
2018-10-11T01:21:12.683Z,9.18
2018-10-11T01:21:12.688Z,9.18
2018-10-11T01:27:07.447Z,9.23
2018-10-11T01:33:02.460Z,9.54
2018-10-11T01:38:57.516Z,8.93
2018-10-11T01:44:52.458Z,9.33
2018-10-11T01:50:47.486Z,9.51
2018-10-11T01:56:42.498Z,8.56
2018-10-11T02:02:37.445Z,8.91
2018-10-11T02:08:32.476Z,9.11
2018-10-11T02:14:27.435Z,10.13
2018-10-11T02:20:22.453Z,9.23
2018-10-11T02:26:17.463Z,9.2
2018-10-11T02:32:12.597Z,8.75
2018-10-11T02:38:07.465Z,10
2018-10-11T02:44:02.458Z,9.92
2018-10-11T02:49:57.448Z,12.2
2018-10-11T03:13:37.519Z,10.94
2018-10-11T03:13:37.535Z,11.27
2018-10-11T03:13:37.569Z,11.27
2018-10-11T03:13:37.593Z,11.27
2018-10-11T03:19:32.469Z,11.06
2018-10-11T03:25:27.464Z,11.68
2018-10-11T03:31:22.542Z,12.85
2018-10-11T03:37:17.461Z,12.77
2018-10-11T03:43:12.491Z,10.09
2018-10-11T03:49:07.510Z,11.23
2018-10-11T03:55:02.465Z,13.17
2018-10-11T04:00:57.491Z,12.83
2018-10-11T04:06:52.454Z,11.33
2018-10-11T04:12:47.478Z,11.94
2018-10-11T04:18:42.514Z,11.71
2018-10-11T04:24:37.484Z,11.25
2018-10-11T04:30:32.514Z,11.77
2018-10-11T04:36:27.507Z,10.68
2018-10-11T04:42:22.464Z,10.26
2018-10-11T04:48:17.495Z,10.21
2018-10-11T04:54:12.451Z,10.44
2018-10-11T05:00:07.463Z,11.25
2018-10-11T05:06:02.504Z,13.33
2018-10-11T05:11:57.459Z,12.07
2018-10-11T05:17:52.466Z,10.49
2018-10-11T05:23:47.494Z,13.6
2018-10-11T05:29:42.489Z,13.35
2018-10-11T05:35:37.481Z,18
2018-10-11T05:41:32.470Z,13.87
2018-10-11T05:47:27.469Z,15.13
2018-10-11T06:11:07.505Z,13.78
2018-10-11T06:11:07.566Z,16.26
2018-10-11T06:11:07.573Z,16.26
2018-10-11T06:11:07.605Z,16.26
2018-10-11T06:17:02.533Z,16.8
2018-10-11T06:22:57.484Z,16.58
2018-10-11T06:28:52.491Z,17.24
2018-10-11T06:34:47.489Z,17.51
2018-10-11T06:40:42.494Z,18.71
2018-10-11T06:46:37.578Z,20.82
2018-10-11T06:52:32.478Z,19.83
2018-10-11T06:58:27.487Z,23.16
2018-10-11T07:04:22.480Z,34.62
2018-10-11T07:10:17.495Z,35.19
2018-10-11T07:16:12.502Z,31.98
2018-10-11T07:22:07.478Z,32.43
2018-10-11T07:28:02.515Z,32.39
2018-10-11T07:33:57.465Z,26.72
2018-10-11T07:39:52.527Z,27.52
2018-10-11T07:45:47.492Z,27.02
2018-10-11T07:51:42.486Z,28.48
2018-10-11T07:57:37.553Z,23.61
2018-10-11T08:03:32.610Z,25.52
2018-10-11T08:09:27.490Z,27.23
2018-10-11T08:15:22.493Z,24.49
2018-10-11T08:21:17.465Z,26.75
2018-10-11T08:27:12.505Z,25.01
2018-10-11T08:33:07.599Z,26.25
2018-10-11T08:39:02.507Z,26.29
2018-10-11T08:44:57.483Z,23.24
2018-10-11T08:50:52.673Z,22.93
2018-10-11T09:14:32.531Z,21.94
2018-10-11T09:14:32.640Z,21.82
2018-10-11T09:14:32.652Z,21.82
2018-10-11T09:14:32.667Z,21.82
2018-10-11T09:20:27.565Z,21.29
2018-10-11T09:26:22.499Z,21.47
2018-10-11T09:32:17.519Z,21.65
2018-10-11T09:38:12.501Z,20.94
2018-10-11T09:44:07.480Z,21.97
2018-10-11T09:50:02.558Z,20.91
2018-10-11T09:55:57.517Z,20.8
2018-10-11T10:01:52.590Z,21.17
2018-10-11T10:07:47.494Z,18.66
2018-10-11T10:13:42.496Z,18.32
2018-10-11T10:19:37.502Z,19.72
2018-10-11T10:25:32.515Z,18.14
2018-10-11T10:31:27.502Z,17.65
2018-10-11T10:37:22.519Z,16.6
2018-10-11T10:43:17.532Z,16.9
2018-10-11T10:49:12.512Z,15.44
2018-10-11T10:55:07.499Z,14.97
2018-10-11T11:01:02.666Z,14.56
2018-10-11T11:06:57.533Z,14.7
2018-10-11T11:12:52.550Z,14.59
2018-10-11T11:18:47.551Z,15.34
2018-10-11T11:24:42.555Z,14.69
2018-10-11T11:30:37.540Z,13.33
2018-10-11T11:36:32.535Z,13.82
2018-10-11T11:42:27.548Z,13.08
2018-10-11T11:48:22.523Z,14.02
2018-10-11T12:12:02.572Z,12.5
2018-10-11T12:12:02.580Z,12.78
2018-10-11T12:12:02.609Z,12.03
2018-10-11T12:12:02.621Z,12.03
2018-10-11T12:17:57.566Z,12.03
2018-10-11T12:23:52.567Z,12.97
2018-10-11T12:29:47.529Z,11.32
2018-10-11T12:35:42.567Z,12.09
2018-10-11T12:41:37.602Z,10.87
2018-10-11T12:47:32.575Z,11.21
2018-10-11T12:53:27.582Z,10.98
2018-10-11T12:59:22.616Z,9.53
2018-10-11T13:05:17.560Z,10.5
2018-10-11T13:11:12.574Z,10.37
2018-10-11T13:17:07.561Z,9.64
2018-10-11T13:23:02.786Z,9.01
2018-10-11T13:28:57.668Z,8.83
2018-10-11T13:34:52.667Z,8.03
2018-10-11T13:40:47.700Z,7.09
2018-10-11T13:46:42.569Z,7.36
2018-10-11T13:52:37.580Z,6.86
2018-10-11T13:58:32.572Z,5.74
2018-10-11T14:04:27.630Z,5.29
2018-10-11T14:10:22.608Z,5.12
2018-10-11T14:16:17.592Z,5.01
2018-10-11T14:22:12.645Z,4.61
2018-10-11T14:28:07.611Z,5.27
2018-10-11T14:34:02.593Z,5.57
2018-10-11T14:39:57.627Z,4.98
2018-10-11T14:45:52.617Z,5.36
2018-10-11T14:51:48.784Z,5.49
2018-10-11T15:15:27.624Z,4.7
2018-10-11T15:15:27.665Z,5.57
2018-10-11T15:15:27.670Z,5.57
2018-10-11T15:15:27.728Z,5.57
2018-10-11T15:21:22.612Z,5.38
2018-10-11T15:27:17.620Z,5.68
2018-10-11T15:33:12.639Z,5.03
2018-10-11T15:39:07.616Z,5.87
2018-10-11T15:45:02.650Z,5.27
2018-10-11T15:50:57.620Z,6.38
2018-10-11T15:56:52.652Z,5.82
2018-10-11T16:02:47.638Z,4.73
2018-10-11T16:08:42.647Z,4.38
2018-10-11T16:14:37.633Z,5.01
2018-10-11T16:20:32.627Z,5.44
2018-10-11T16:26:27.636Z,9.27
2018-10-11T16:32:22.685Z,7.84
2018-10-11T16:38:17.644Z,5.43
2018-10-11T16:44:12.655Z,5.3
2018-10-11T16:50:07.796Z,5.67
2018-10-11T16:56:02.674Z,6.06
2018-10-11T17:01:57.636Z,6.1
2018-10-11T17:07:52.757Z,5.67
2018-10-11T17:13:47.681Z,5.21
2018-10-11T17:19:42.639Z,5.49
2018-10-11T17:25:37.732Z,6.76
2018-10-11T17:31:32.647Z,5.53
2018-10-11T17:37:27.695Z,6.34
2018-10-11T17:43:22.680Z,6.55
2018-10-11T17:49:17.657Z,6.97
2018-10-11T18:12:57.705Z,6.29
2018-10-11T18:12:57.715Z,6.36
2018-10-11T18:12:57.736Z,6.36
2018-10-11T18:12:57.822Z,6.36
2018-10-11T18:18:52.721Z,5.99
2018-10-11T18:24:47.678Z,7.1
2018-10-11T18:30:42.719Z,6.22
2018-10-11T18:36:37.744Z,6.23
2018-10-11T18:42:32.683Z,6.74
2018-10-11T18:48:27.682Z,6.18
2018-10-11T18:54:22.664Z,5.13
2018-10-11T19:00:17.713Z,5.45
2018-10-11T19:06:12.686Z,5.55
2018-10-11T19:12:07.677Z,5.87
2018-10-11T19:18:02.745Z,5.14
2018-10-11T19:23:57.696Z,5.13
2018-10-11T19:29:52.694Z,5.3
2018-10-11T19:35:47.695Z,5.27
2018-10-11T19:41:42.688Z,5.93
2018-10-11T19:47:37.704Z,5.47
2018-10-11T19:53:32.697Z,5.86
2018-10-11T19:59:27.681Z,5.1
2018-10-11T20:05:22.707Z,4.98
2018-10-11T20:11:17.712Z,5.12
2018-10-11T20:17:12.767Z,4.75
2018-10-11T20:23:07.701Z,5.75
2018-10-11T20:29:02.812Z,6.45
2018-10-11T20:34:57.729Z,8.99
2018-10-11T20:40:52.750Z,8.4
2018-10-11T20:46:47.712Z,6.55
2018-10-11T20:52:42.752Z,7.28
2018-10-11T21:16:22.729Z,5.61
2018-10-11T21:16:22.769Z,4.26
2018-10-11T21:16:22.797Z,4.26
2018-10-11T21:16:22.837Z,4.26
2018-10-11T21:22:17.699Z,4.56
2018-10-11T21:28:12.773Z,4.59
2018-10-11T21:34:07.775Z,4.22
2018-10-11T21:40:02.776Z,4.11
2018-10-11T21:45:57.733Z,4.55
2018-10-11T21:51:52.725Z,4.8
2018-10-11T21:57:47.806Z,4.38
2018-10-11T22:03:42.745Z,4.17
2018-10-11T22:09:37.767Z,3.77
2018-10-11T22:15:32.807Z,3.97
2018-10-11T22:21:27.729Z,4.08
2018-10-11T22:27:22.721Z,3.61
2018-10-11T22:33:17.744Z,4.42
2018-10-11T22:39:12.744Z,4.25
2018-10-11T22:45:07.735Z,4.41
2018-10-11T22:51:02.758Z,4.69
2018-10-11T22:56:57.715Z,3.94
2018-10-11T23:02:52.729Z,4.21
2018-10-11T23:08:47.737Z,4.57
2018-10-11T23:14:42.843Z,4.1
2018-10-11T23:20:37.762Z,4.59
2018-10-11T23:26:32.745Z,4.94
2018-10-11T23:32:27.732Z,4.43
2018-10-11T23:38:22.752Z,4.44
2018-10-11T23:44:17.747Z,4.83
2018-10-11T23:50:12.734Z,4.08
